Time;durP1;ratioP1;P1;durP2;ratioP2;P2;SDS_P1;SDS_P2;PMS_P1;PMS_P2;Temp;Humidity;BMP_temperature;BMP_pressure;BME280_temperature;BME280_humidity;BME280_pressure;Samples;Min_cycle;Max_cycle;Signal;HPM_P1;HPM_P2
2023/10/12 00:02:47;;;;;;;8.00;2.00;;;13.50;99.90;;;;;;4897532;29;20087;-91
2023/10/12 00:05:17;;;;;;;4.60;1.58;;;13.50;99.90;;;;;;4876236;29;20044;-90
2023/10/12 00:07:45;;;;;;;7.60;1.65;;;13.90;99.90;;;;;;4888805;29;20040;-91
2023/10/12 00:12:44;;;;;;;7.03;1.80;;;13.50;99.90;;;;;;4901959;29;20151;-91
2023/10/12 00:17:53;;;;;;;11.13;2.13;;;13.60;99.90;;;;;;4878351;29;20402;-91
2023/10/12 00:20:38;;;;;;;7.60;1.67;;;13.60;99.90;;;;;;4874934;29;20380;-92
2023/10/12 00:23:15;;;;;;;6.90;1.73;;;13.50;99.90;;;;;;4875864;29;20064;-91
2023/10/12 00:25:54;;;;;;;6.45;1.90;;;13.60;99.90;;;;;;4896643;29;20040;-90
2023/10/12 00:28:28;;;;;;;6.38;1.80;;;13.60;99.90;;;;;;4865128;29;20040;-92
2023/10/12 00:30:57;;;;;;;6.00;1.70;;;13.60;99.90;;;;;;4877772;29;20048;-92
2023/10/12 00:33:24;;;;;;;7.55;1.85;;;13.60;99.90;;;;;;4878259;29;20051;-92
2023/10/12 00:36:11;;;;;;;6.95;1.75;;;13.60;99.90;;;;;;4895230;29;20497;-92
2023/10/12 00:38:38;;;;;;;7.00;2.00;;;13.60;99.90;;;;;;4869897;29;20048;-91
2023/10/12 00:41:04;;;;;;;8.00;1.83;;;13.60;99.90;;;;;;4868770;29;20032;-91
2023/10/12 00:43:36;;;;;;;8.63;2.28;;;13.60;99.90;;;;;;4877298;29;20394;-92
2023/10/12 00:46:39;;;;;;;11.77;2.45;;;13.60;99.90;;;;;;4877946;29;20040;-91
2023/10/12 00:49:20;;;;;;;7.30;2.00;;;13.50;99.90;;;;;;4879971;29;20036;-92
2023/10/12 00:52:13;;;;;;;8.77;1.85;;;13.60;99.90;;;;;;4879427;29;20044;-91
2023/10/12 00:54:41;;;;;;;9.80;1.85;;;13.60;99.90;;;;;;4896538;29;20107;-92
2023/10/12 00:57:09;;;;;;;8.20;1.75;;;13.60;99.90;;;;;;4879238;29;20126;-92
2023/10/12 00:59:37;;;;;;;8.38;2.10;;;13.60;99.90;;;;;;4863067;29;20677;-91
2023/10/12 01:02:12;;;;;;;6.82;1.90;;;13.50;99.90;;;;;;4894531;29;20398;-92
2023/10/12 01:04:41;;;;;;;8.35;1.83;;;13.50;99.90;;;;;;4872180;29;20046;-91
2023/10/12 01:07:18;;;;;;;11.30;2.13;;;13.60;99.90;;;;;;4861458;29;20048;-91
2023/10/12 01:09:45;;;;;;;5.85;1.67;;;13.60;99.90;;;;;;4885010;29;20409;-91
2023/10/12 01:12:14;;;;;;;9.60;2.00;;;13.60;99.90;;;;;;4889170;29;20451;-92
2023/10/12 01:14:47;;;;;;;7.70;2.17;;;13.60;99.90;;;;;;4890082;29;20035;-91
2023/10/12 01:17:34;;;;;;;7.10;1.92;;;13.60;99.90;;;;;;4889253;29;20047;-91
2023/10/12 01:20:12;;;;;;;8.50;2.20;;;13.50;99.90;;;;;;4883499;29;20123;-92
2023/10/12 01:22:41;;;;;;;7.97;1.85;;;;;;;;;;4881757;29;20043;-92
2023/10/12 01:25:28;;;;;;;7.75;2.03;;;13.50;99.90;;;;;;4883106;29;20045;-92
2023/10/12 01:27:54;;;;;;;7.63;1.98;;;13.50;99.90;;;;;;4897174;29;20044;-92
2023/10/12 01:30:23;;;;;;;7.53;1.77;;;13.40;99.90;;;;;;4866168;29;20044;-91
2023/10/12 01:32:59;;;;;;;10.30;2.22;;;13.40;99.90;;;;;;4898764;29;20513;-92
2023/10/12 01:35:38;;;;;;;8.90;2.17;;;13.50;99.90;;;;;;4893861;29;20036;-91
2023/10/12 01:38:05;;;;;;;7.78;1.83;;;13.40;99.90;;;;;;4897699;29;20055;-93
2023/10/12 01:43:17;;;;;;;6.65;1.70;;;13.40;99.90;;;;;;4897313;29;20051;-91
2023/10/12 01:45:44;;;;;;;8.38;1.80;;;13.40;99.90;;;;;;4905275;29;20496;-92
2023/10/12 01:48:16;;;;;;;6.30;1.75;;;13.40;99.90;;;;;;4897380;29;20056;-91
2023/10/12 01:50:43;;;;;;;5.60;1.50;;;13.40;99.90;;;;;;4882469;29;20032;-92
2023/10/12 01:55:45;;;;;;;9.15;2.20;;;13.40;99.90;;;;;;4901791;29;20063;-91
2023/10/12 01:58:12;;;;;;;9.00;2.13;;;13.40;99.90;;;;;;4881296;29;20071;-91
2023/10/12 02:00:42;;;;;;;8.10;2.20;;;13.30;99.90;;;;;;4895864;29;20182;-92
2023/10/12 02:03:20;;;;;;;8.02;2.00;;;13.40;99.90;;;;;;4879088;29;20046;-92
2023/10/12 02:06:13;;;;;;;10.07;2.25;;;13.30;99.90;;;;;;4882852;29;20048;-92
2023/10/12 02:08:40;;;;;;;7.50;2.17;;;13.30;99.90;;;;;;4905311;29;20123;-92
2023/10/12 02:11:11;;;;;;;6.60;1.80;;;13.30;99.90;;;;;;4870833;29;20047;-92
2023/10/12 02:13:37;;;;;;;6.57;2.08;;;13.30;99.90;;;;;;4898955;29;20402;-91
2023/10/12 02:16:04;;;;;;;7.93;2.13;;;13.30;99.90;;;;;;4866163;29;20178;-91
2023/10/12 02:18:30;;;;;;;8.07;1.98;;;13.30;99.90;;;;;;4871380;29;20057;-91
2023/10/12 02:23:38;;;;;;;9.35;2.05;;;13.30;99.90;;;;;;4887103;29;20056;-91
2023/10/12 02:26:28;;;;;;;6.88;1.83;;;13.30;99.90;;;;;;4832924;29;20052;-90
2023/10/12 02:28:54;;;;;;;7.05;1.70;;;13.20;99.90;;;;;;4866568;29;20112;-92
2023/10/12 02:31:29;;;;;;;7.63;1.90;;;13.20;99.90;;;;;;4870834;29;20093;-92
2023/10/12 02:34:01;;;;;;;6.38;1.80;;;13.20;99.90;;;;;;4852911;29;20124;-91
2023/10/12 02:36:26;;;;;;;8.70;1.90;;;12.30;99.90;;;;;;4863725;29;20132;-91
2023/10/12 02:38:58;;;;;;;7.68;1.90;;;13.10;99.90;;;;;;4854854;29;20123;-91
2023/10/12 02:41:24;;;;;;;7.80;1.88;;;13.10;99.90;;;;;;4851280;29;20277;-91
2023/10/12 02:43:54;;;;;;;7.15;1.98;;;13.10;99.90;;;;;;4845636;29;20051;-90
2023/10/12 02:46:25;;;;;;;10.02;1.98;;;13.10;99.90;;;;;;4888695;29;20045;-91
2023/10/12 02:48:51;;;;;;;7.40;1.80;;;13.10;99.90;;;;;;4851985;29;20063;-91
2023/10/12 02:51:22;;;;;;;7.32;1.83;;;13.10;99.90;;;;;;4870746;29;20044;-90
2023/10/12 02:53:50;;;;;;;8.35;1.80;;;13.10;99.90;;;;;;4862595;29;20040;-91
2023/10/12 02:56:22;;;;;;;9.43;2.20;;;13.10;99.90;;;;;;4845228;29;20040;-91
2023/10/12 02:58:48;;;;;;;7.60;1.97;;;13.10;99.90;;;;;;4862805;29;20406;-91
2023/10/12 03:01:19;;;;;;;6.20;1.60;;;13.00;99.90;;;;;;4847772;29;20062;-91
2023/10/12 03:03:48;;;;;;;6.63;1.77;;;13.00;99.90;;;;;;4847167;29;20064;-91
2023/10/12 03:06:31;;;;;;;6.45;2.15;;;13.00;99.90;;;;;;4847050;29;20077;-91
2023/10/12 03:11:26;;;;;;;8.23;1.83;;;13.00;99.90;;;;;;4876323;29;20051;-90
2023/10/12 03:16:41;;;;;;;6.30;1.65;;;12.50;99.90;;;;;;4860448;29;20080;-90
2023/10/12 03:19:26;;;;;;;9.77;2.38;;;12.90;99.90;;;;;;4849814;29;20062;-91
2023/10/12 03:21:52;;;;;;;7.32;1.60;;;12.90;99.90;;;;;;4859475;29;20141;-91
2023/10/12 03:24:37;;;;;;;7.22;2.00;;;12.90;99.90;;;;;;4870087;29;20049;-90
2023/10/12 03:29:29;;;;;;;7.57;1.90;;;12.90;99.90;;;;;;4862965;29;20040;-91
2023/10/12 03:31:56;;;;;;;8.48;1.88;;;12.80;99.90;;;;;;4862421;29;20057;-90
2023/10/12 03:37:03;;;;;;;7.07;2.00;;;12.80;99.90;;;;;;4856239;29;20052;-91
2023/10/12 03:39:32;;;;;;;7.45;1.80;;;12.80;99.90;;;;;;4859533;29;20047;-91
2023/10/12 03:42:27;;;;;;;7.68;2.22;;;12.80;99.90;;;;;;4848945;29;20120;-90
2023/10/12 03:44:55;;;;;;;6.85;1.88;;;12.70;99.90;;;;;;4860945;29;20465;-91
2023/10/12 03:52:20;;;;;;;6.97;1.77;;;;;;;;;;4862510;29;20124;-90
2023/10/12 03:54:55;;;;;;;8.82;1.80;;;12.70;99.90;;;;;;4875717;29;20472;-90
2023/10/12 04:14:11;;;;;;;8.50;1.70;;;;;;;;;;4863413;29;20044;-90
2023/10/12 04:18:42;;;;;;;10.57;2.03;;;12.60;99.90;;;;;;4881911;29;20212;-90
2023/10/12 04:21:18;;;;;;;7.80;1.90;;;12.60;99.90;;;;;;4876968;29;20040;-90
2023/10/12 04:27:06;;;;;;;7.07;2.00;;;12.50;99.90;;;;;;4894019;29;20131;-90
2023/10/12 04:28:56;;;;;;;8.05;1.70;;;12.50;99.90;;;;;;4884360;29;20044;-90
2023/10/12 04:36:37;;;;;;;6.78;1.80;;;12.50;99.90;;;;;;4902105;29;20148;-90
2023/10/12 04:41:38;;;;;;;5.15;1.73;;;12.50;99.90;;;;;;4895268;29;20072;-90
2023/10/12 04:47:15;;;;;;;5.35;1.67;;;12.50;99.90;;;;;;4840733;29;20049;-90
2023/10/12 04:57:27;;;;;;;;;;;12.40;99.90;;;;;;4897338;29;20055;-90
2023/10/12 05:00:24;;;;;;;4.93;1.58;;;12.30;99.90;;;;;;4878577;29;20431;-90
2023/10/12 05:07:54;;;;;;;6.35;2.40;;;12.40;99.90;;;;;;4880947;29;20516;-90
2023/10/12 05:10:46;;;;;;;6.63;1.40;;;12.30;99.90;;;;;;4876777;29;20052;-91
2023/10/12 05:13:19;;;;;;;4.60;1.70;;;12.30;99.90;;;;;;4882127;29;20040;-91
2023/10/12 05:15:51;;;;;;;9.20;1.98;;;12.30;99.90;;;;;;4898988;29;20052;-91
2023/10/12 05:18:18;;;;;;;6.67;2.30;;;12.20;99.90;;;;;;4877587;29;20052;-91
2023/10/12 05:20:44;;;;;;;5.72;1.75;;;12.20;99.90;;;;;;4865886;29;20084;-91
2023/10/12 05:23:11;;;;;;;8.40;2.00;;;12.20;99.90;;;;;;4859354;29;20092;-90
2023/10/12 05:28:21;;;;;;;7.97;1.90;;;12.10;99.90;;;;;;4896007;29;20060;-90
2023/10/12 05:30:55;;;;;;;6.15;1.67;;;12.10;99.90;;;;;;4868945;29;20059;-91
2023/10/12 05:34:00;;;;;;;8.77;1.90;;;12.10;99.90;;;;;;4883738;29;20040;-91
2023/10/12 05:36:12;;;;;;;7.80;2.30;;;12.10;99.90;;;;;;4898580;29;20418;-91
2023/10/12 05:38:48;;;;;;;5.35;1.80;;;12.10;99.90;;;;;;4882995;29;20039;-91
2023/10/12 05:41:21;;;;;;;12.75;2.28;;;12.00;99.90;;;;;;4909613;29;20115;-91
2023/10/12 05:43:47;;;;;;;5.47;1.73;;;12.10;99.90;;;;;;4872056;29;20489;-91
2023/10/12 05:46:16;;;;;;;6.47;1.88;;;12.00;99.90;;;;;;4883567;29;20116;-90
2023/10/12 05:48:51;;;;;;;8.52;1.88;;;12.00;99.90;;;;;;4871215;29;20120;-91
2023/10/12 05:51:21;;;;;;;9.52;1.80;;;12.00;99.90;;;;;;4880501;29;20084;-91
2023/10/12 05:54:02;;;;;;;7.10;1.77;;;11.90;99.90;;;;;;4898710;29;20044;-91
2023/10/12 05:56:34;;;;;;;5.55;1.80;;;12.00;99.90;;;;;;4871121;29;20056;-90
2023/10/12 05:59:00;;;;;;;6.82;2.05;;;11.90;99.90;;;;;;4887751;29;20505;-91
2023/10/12 06:01:32;;;;;;;11.10;1.85;;;11.90;99.90;;;;;;4883134;29;20051;-90
2023/10/12 06:04:08;;;;;;;7.78;2.30;;;11.90;99.90;;;;;;4868221;29;20084;-91
2023/10/12 06:06:41;;;;;;;8.18;1.83;;;11.90;99.90;;;;;;4868314;29;20071;-91
2023/10/12 06:09:20;;;;;;;6.80;1.85;;;11.90;99.90;;;;;;4878476;29;20577;-91
2023/10/12 06:11:47;;;;;;;9.18;2.00;;;11.90;99.90;;;;;;4883306;29;20417;-90
2023/10/12 06:14:14;;;;;;;7.80;2.30;;;11.90;99.90;;;;;;4867551;29;20040;-91
2023/10/12 06:16:41;;;;;;;9.57;2.50;;;11.90;99.90;;;;;;4899368;29;20395;-91
2023/10/12 06:19:26;;;;;;;6.10;1.77;;;11.80;99.90;;;;;;4885183;29;20076;-91
2023/10/12 06:21:53;;;;;;;7.05;1.88;;;11.90;99.90;;;;;;4864529;29;20578;-91
2023/10/12 06:24:33;;;;;;;7.82;2.20;;;11.80;99.90;;;;;;4864335;29;20095;-90
2023/10/12 06:27:22;;;;;;;7.50;2.20;;;11.80;99.90;;;;;;4847881;29;20045;-90
2023/10/12 06:29:55;;;;;;;5.53;1.88;;;11.90;99.90;;;;;;4874100;29;20048;-91
2023/10/12 06:32:33;;;;;;;7.72;2.47;;;11.90;99.90;;;;;;4856009;29;20103;-90
2023/10/12 06:37:49;;;;;;;5.78;1.70;;;11.80;99.90;;;;;;4869895;29;20048;-91
2023/10/12 06:45:46;;;;;;;6.45;1.80;;;;;;;;;;4894898;29;20091;-90
2023/10/12 06:48:58;;;;;;;7.03;2.13;;;11.90;99.90;;;;;;4863250;29;20104;-90
2023/10/12 06:51:11;;;;;;;7.00;2.00;;;11.90;99.90;;;;;;4870784;29;20064;-90
2023/10/12 06:53:40;;;;;;;7.05;1.90;;;11.90;99.90;;;;;;4845228;29;20044;-90
2023/10/12 06:58:42;;;;;;;7.05;2.00;;;11.80;99.90;;;;;;4878838;29;20131;-91
2023/10/12 07:03:53;;;;;;;6.25;2.05;;;12.00;99.90;;;;;;4865866;29;20443;-90
2023/10/12 07:06:18;;;;;;;8.07;2.25;;;12.00;99.90;;;;;;4879320;29;20041;-90
2023/10/12 07:08:46;;;;;;;7.28;1.85;;;12.10;99.90;;;;;;4862831;29;20525;-90
2023/10/12 07:11:14;;;;;;;6.93;2.00;;;12.20;99.90;;;;;;4845562;29;20039;-91
2023/10/12 07:13:41;;;;;;;7.20;2.08;;;12.20;99.90;;;;;;4858101;29;20039;-91
2023/10/12 07:16:16;;;;;;;6.32;1.98;;;12.20;99.90;;;;;;4866359;29;20044;-90
2023/10/12 07:18:44;;;;;;;7.85;2.28;;;12.30;99.90;;;;;;4854634;29;20139;-90
2023/10/12 07:21:22;;;;;;;9.43;2.30;;;12.40;99.90;;;;;;4880435;29;20036;-90
2023/10/12 07:23:56;;;;;;;6.13;1.83;;;12.80;99.90;;;;;;4878028;29;20035;-90
2023/10/12 07:26:24;;;;;;;7.93;1.80;;;12.50;99.90;;;;;;4880506;29;20040;-90
2023/10/12 07:28:55;;;;;;;9.48;2.30;;;12.50;99.90;;;;;;4880883;29;20040;-90
2023/10/12 07:31:38;;;;;;;5.75;1.90;;;12.60;99.90;;;;;;4884320;29;20048;-90
2023/10/12 07:34:05;;;;;;;9.43;2.28;;;12.70;99.90;;;;;;4896328;29;20058;-90
2023/10/12 07:39:19;;;;;;;6.28;1.95;;;12.90;99.90;;;;;;4897195;29;20326;-90
2023/10/12 07:42:00;;;;;;;12.02;2.25;;;13.00;99.90;;;;;;4863036;29;20053;-90
2023/10/12 07:44:42;;;;;;;5.82;1.80;;;13.00;99.90;;;;;;4879069;29;20044;-90
2023/10/12 07:47:25;;;;;;;8.53;2.10;;;13.10;99.90;;;;;;4868086;29;20044;-90
2023/10/12 07:49:57;;;;;;;7.13;2.10;;;13.10;99.90;;;;;;4891122;29;20040;-91
2023/10/12 07:52:38;;;;;;;7.82;2.20;;;13.90;99.90;;;;;;4885152;29;20114;-90
2023/10/12 07:55:12;;;;;;;5.90;1.70;;;13.30;99.90;;;;;;4876855;29;20037;-90
2023/10/12 07:57:39;;;;;;;6.50;1.95;;;13.40;99.90;;;;;;4882237;29;20044;-90
2023/10/12 08:13:48;;;;;;;6.40;1.73;;;13.50;99.90;;;;;;4898166;29;20044;-90
2023/10/12 08:16:04;;;;;;;6.55;1.50;;;13.50;99.90;;;;;;4882230;29;20052;-90
2023/10/12 08:31:44;;;;;;;7.15;1.60;;;;;;;;;;4899326;29;20044;-91
2023/10/12 08:34:41;;;;;;;6.32;1.65;;;13.60;99.90;;;;;;4890442;29;20039;-90
2023/10/12 08:39:38;;;;;;;;;;;13.60;99.90;;;;;;4900411;29;20479;-90
2023/10/12 08:44:50;;;;;;;5.95;1.70;;;13.70;99.90;;;;;;4878628;29;20089;-90
2023/10/12 08:47:26;;;;;;;4.53;1.48;;;13.70;99.90;;;;;;4894928;29;20123;-90
2023/10/12 08:49:53;;;;;;;5.45;1.73;;;13.80;99.90;;;;;;4911331;29;20051;-90
2023/10/12 08:52:28;;;;;;;5.22;1.40;;;13.90;99.90;;;;;;4902565;29;20128;-91
2023/10/12 08:57:55;;;;;;;7.80;2.00;;;13.90;99.90;;;;;;4899062;29;20059;-91
2023/10/12 09:03:00;;;;;;;6.72;1.83;;;14.00;99.90;;;;;;4897697;29;20060;-91
2023/10/12 09:05:28;;;;;;;5.68;1.90;;;14.10;99.90;;;;;;4901579;29;20044;-91
2023/10/12 09:08:39;;;;;;;5.75;1.58;;;14.00;99.90;;;;;;4898251;29;20067;-91
2023/10/12 09:13:21;;;;;;;5.90;1.45;;;14.10;99.90;;;;;;4910903;29;20649;-92
2023/10/12 09:15:54;;;;;;;7.57;1.60;;;14.10;99.90;;;;;;4903328;29;20394;-90
2023/10/12 09:18:21;;;;;;;;;;;14.20;99.90;;;;;;4881892;29;20064;-90
2023/10/12 09:36:50;;;;;;;5.85;1.60;;;14.80;99.90;;;;;;4888568;29;20049;-90
2023/10/12 09:39:24;;;;;;;7.00;1.73;;;14.80;99.90;;;;;;4864277;29;20108;-91
2023/10/12 09:41:59;;;;;;;7.85;2.25;;;14.90;99.90;;;;;;4858462;29;20049;-90
2023/10/12 09:44:26;;;;;;;6.53;1.73;;;14.90;99.90;;;;;;4873280;29;20494;-91
2023/10/12 09:46:57;;;;;;;8.05;1.85;;;14.90;99.90;;;;;;4864147;29;20108;-90
2023/10/12 09:49:30;;;;;;;8.18;1.88;;;14.90;99.90;;;;;;4863146;29;20101;-91
2023/10/12 09:52:04;;;;;;;7.05;1.83;;;14.90;99.90;;;;;;4844912;29;20045;-91
2023/10/12 09:54:53;;;;;;;7.55;1.80;;;15.00;99.90;;;;;;4858869;29;20483;-90
2023/10/12 09:57:23;;;;;;;6.90;1.65;;;14.90;99.90;;;;;;4854642;29;20084;-90
2023/10/12 10:00:01;;;;;;;8.70;1.77;;;14.90;99.90;;;;;;4896222;29;20059;-91
2023/10/12 10:05:11;;;;;;;6.90;1.70;;;15.00;99.90;;;;;;4881901;29;20135;-91
2023/10/12 10:07:57;;;;;;;7.72;2.08;;;15.00;99.90;;;;;;4869730;29;20044;-91
2023/10/12 10:10:30;;;;;;;7.70;1.73;;;15.00;99.90;;;;;;4881402;29;20118;-90
2023/10/12 10:13:03;;;;;;;6.50;1.83;;;15.10;99.90;;;;;;4844160;29;20359;-90
2023/10/12 10:15:43;;;;;;;5.63;1.70;;;15.20;99.90;;;;;;4864760;29;20107;-91
2023/10/12 10:18:16;;;;;;;8.65;1.98;;;15.10;99.90;;;;;;4869157;29;20048;-89
2023/10/12 10:21:15;;;;;;;8.07;1.70;;;15.20;99.90;;;;;;4910267;29;20127;-90
2023/10/12 10:23:47;;;;;;;7.60;1.65;;;15.30;99.90;;;;;;4879061;29;20044;-91
2023/10/12 10:26:30;;;;;;;6.80;1.77;;;15.30;99.90;;;;;;4897831;29;20082;-90
2023/10/12 10:29:17;;;;;;;6.10;1.55;;;15.30;99.90;;;;;;4884208;29;20044;-91
2023/10/12 10:31:50;;;;;;;5.60;1.67;;;15.40;99.90;;;;;;4917094;29;20044;-91
2023/10/12 10:34:23;;;;;;;;;;;15.40;99.90;;;;;;4890804;29;20056;-91
2023/10/12 10:36:53;;;;;;;10.07;1.60;;;;;;;;;;4898363;29;19919;-91
2023/10/12 10:44:23;;;;;;;6.50;1.75;;;15.70;99.90;;;;;;4891828;29;20079;-91
2023/10/12 10:46:58;;;;;;;9.77;1.92;;;15.80;99.90;;;;;;4898471;29;20048;-91
2023/10/12 10:49:31;;;;;;;6.13;1.58;;;15.80;99.90;;;;;;4888770;29;20043;-91
2023/10/12 10:52:20;;;;;;;6.78;1.60;;;15.90;99.90;;;;;;4882967;29;20040;-91
2023/10/12 10:55:01;;;;;;;6.65;1.90;;;15.80;99.90;;;;;;4867358;29;20051;-91
2023/10/12 10:57:37;;;;;;;5.90;1.45;;;15.80;99.90;;;;;;4896046;29;20055;-91
2023/10/12 11:00:33;;;;;;;6.53;1.75;;;15.80;99.90;;;;;;4890393;29;20048;-91
2023/10/12 11:03:16;;;;;;;5.75;1.90;;;15.70;99.90;;;;;;4884150;29;20524;-91
2023/10/12 11:05:46;;;;;;;7.07;1.83;;;15.80;99.90;;;;;;4873960;29;20449;-91
2023/10/12 11:08:27;;;;;;;4.95;1.60;;;15.70;99.90;;;;;;4875021;29;20045;-91
2023/10/12 11:13:38;;;;;;;6.88;1.52;;;15.60;99.90;;;;;;4883627;29;20410;-91
2023/10/12 11:18:52;;;;;;;6.57;1.40;;;15.60;99.90;;;;;;4915493;29;20055;-91
2023/10/12 11:21:18;;;;;;;7.97;1.60;;;15.60;99.90;;;;;;4906627;29;20568;-91
2023/10/12 11:23:44;;;;;;;7.45;1.63;;;15.70;99.90;;;;;;4894114;29;20048;-91
2023/10/12 11:26:17;;;;;;;8.27;1.88;;;15.70;99.90;;;;;;4881864;29;20185;-92
2023/10/12 11:28:43;;;;;;;;;;;15.80;99.90;;;;;;4897537;29;20044;-92
2023/10/12 11:31:30;;;;;;;5.88;1.60;;;15.80;99.90;;;;;;4881935;29;19919;-91
2023/10/12 11:33:57;;;;;;;6.97;1.70;;;15.80;99.90;;;;;;4854467;29;20454;-91
2023/10/12 11:36:23;;;;;;;6.90;1.80;;;15.80;99.90;;;;;;4877372;29;20045;-91
2023/10/12 11:39:16;;;;;;;7.85;1.60;;;15.80;99.90;;;;;;4876853;29;20039;-91
2023/10/12 11:42:03;;;;;;;6.93;1.77;;;15.90;99.90;;;;;;4893323;29;20040;-91
2023/10/12 11:44:46;;;;;;;7.85;1.60;;;16.00;99.90;;;;;;4867728;29;20537;-93
2023/10/12 11:47:24;;;;;;;7.65;1.50;;;15.90;99.90;;;;;;4916264;29;20047;-90
2023/10/12 11:49:56;;;;;;;7.03;1.80;;;16.00;99.90;;;;;;4893572;29;20508;-91
2023/10/12 11:52:33;;;;;;;8.68;1.88;;;16.00;99.90;;;;;;4898380;29;20082;-91
2023/10/12 11:55:20;;;;;;;6.07;1.50;;;15.90;99.90;;;;;;4900493;29;20055;-92
2023/10/12 11:58:07;;;;;;;5.57;1.52;;;16.00;99.90;;;;;;4881315;29;20050;-91
2023/10/12 12:00:44;;;;;;;6.75;1.45;;;16.00;99.90;;;;;;4866348;29;20051;-91
2023/10/12 12:03:15;;;;;;;6.05;1.83;;;16.00;99.90;;;;;;4881857;29;20044;-91
2023/10/12 12:05:50;;;;;;;5.82;1.30;;;16.10;99.90;;;;;;4870229;29;20204;-91
2023/10/12 12:08:18;;;;;;;8.18;1.98;;;16.10;99.90;;;;;;4881256;29;20048;-92
2023/10/12 12:13:20;;;;;;;7.20;1.70;;;16.10;99.90;;;;;;4903012;29;20512;-91
2023/10/12 12:15:46;;;;;;;7.22;1.77;;;16.00;99.90;;;;;;4886270;29;20458;-91
2023/10/12 12:18:19;;;;;;;5.30;1.48;;;14.10;99.90;;;;;;4853335;29;20493;-91
2023/10/12 12:20:50;;;;;;;;;;;15.80;99.90;;;;;;4881792;29;20055;-91
2023/10/12 12:23:22;;;;;;;7.32;2.10;;;15.70;99.90;;;;;;4897284;29;20083;-91
2023/10/12 12:25:49;;;;;;;6.25;1.52;;;15.60;99.90;;;;;;4889073;29;20055;-90
2023/10/12 12:28:15;;;;;;;6.15;1.70;;;15.60;99.90;;;;;;4893106;29;20051;-92
2023/10/12 12:30:55;;;;;;;6.43;1.50;;;15.60;99.90;;;;;;4885496;29;20040;-91
2023/10/12 12:33:23;;;;;;;7.32;1.85;;;15.60;99.90;;;;;;4899972;29;20083;-91
2023/10/12 12:35:54;;;;;;;6.40;1.63;;;15.60;99.90;;;;;;4916455;29;20050;-91
2023/10/12 12:41:05;;;;;;;5.28;1.45;;;15.60;99.90;;;;;;4892655;29;20131;-91
2023/10/12 12:43:35;;;;;;;6.63;1.75;;;15.50;99.90;;;;;;4898735;29;20490;-91
2023/10/12 12:46:01;;;;;;;6.18;1.83;;;15.50;99.90;;;;;;4881717;29;20083;-91
2023/10/12 12:48:29;;;;;;;6.85;1.95;;;15.50;99.90;;;;;;4879911;29;20541;-91
2023/10/12 12:50:55;;;;;;;7.22;1.80;;;16.60;99.90;;;;;;4878227;29;20208;-91
2023/10/12 12:53:21;;;;;;;6.53;1.60;;;15.50;99.90;;;;;;4864727;29;20044;-91
2023/10/12 12:55:47;;;;;;;7.70;1.90;;;15.50;99.90;;;;;;4850813;29;20127;-91
2023/10/12 12:58:19;;;;;;;6.25;1.60;;;15.50;99.90;;;;;;4886812;29;20683;-91
2023/10/12 13:00:49;;;;;;;7.03;1.60;;;15.50;99.90;;;;;;4881343;29;20100;-92
2023/10/12 13:03:18;;;;;;;6.70;1.55;;;15.50;99.90;;;;;;4880412;29;20044;-91
2023/10/12 13:05:46;;;;;;;6.95;1.65;;;15.40;99.90;;;;;;4891906;29;20565;-91
2023/10/12 13:08:14;;;;;;;7.55;1.80;;;15.40;99.90;;;;;;4883795;29;20044;-91
2023/10/12 13:10:40;;;;;;;6.07;1.50;;;15.40;99.90;;;;;;4896545;29;20048;-89
2023/10/12 13:13:06;;;;;;;6.88;1.70;;;15.40;99.90;;;;;;4867500;29;20456;-91
2023/10/12 13:15:32;;;;;;;7.40;1.50;;;15.40;99.90;;;;;;4900405;29;20096;-91
2023/10/12 13:17:59;;;;;;;8.00;1.65;;;15.40;99.90;;;;;;4868723;29;20048;-90
2023/10/12 13:20:29;;;;;;;5.15;1.58;;;15.40;99.90;;;;;;4884348;29;20048;-91
2023/10/12 13:22:55;;;;;;;8.90;2.08;;;15.80;99.90;;;;;;4859633;29;20100;-91
2023/10/12 13:25:21;;;;;;;7.95;2.08;;;15.10;99.90;;;;;;4884228;29;20223;-91
2023/10/12 13:27:49;;;;;;;6.13;1.70;;;15.30;99.90;;;;;;4868350;29;20203;-91
2023/10/12 13:30:18;;;;;;;8.02;1.90;;;15.40;99.90;;;;;;4899636;29;20044;-91
2023/10/12 13:32:52;;;;;;;8.10;1.40;;;15.40;99.90;;;;;;4865435;29;20051;-91
2023/10/12 13:35:18;;;;;;;6.03;1.60;;;15.40;99.90;;;;;;4859877;29;20104;-91
2023/10/12 13:37:52;;;;;;;5.90;1.63;;;15.30;99.90;;;;;;4862347;29;20043;-91
2023/10/12 13:40:21;;;;;;;6.50;1.80;;;15.30;99.90;;;;;;4884365;29;20391;-91
2023/10/12 13:42:47;;;;;;;6.35;1.50;;;15.30;99.90;;;;;;4880249;29;20063;-91
2023/10/12 13:45:13;;;;;;;8.13;1.80;;;15.30;99.90;;;;;;4898759;29;20052;-91
2023/10/12 13:47:42;;;;;;;8.13;2.05;;;15.20;99.90;;;;;;4868395;29;20106;-91
2023/10/12 13:50:18;;;;;;;8.52;1.77;;;;;;;;;;4883705;29;20047;-92
2023/10/12 13:52:46;;;;;;;6.22;1.70;;;15.30;99.90;;;;;;4898491;29;20097;-92
2023/10/12 13:55:13;;;;;;;8.00;1.80;;;15.20;99.90;;;;;;4891793;29;20036;-92
2023/10/12 13:57:50;;;;;;;4.63;1.50;;;15.20;99.90;;;;;;4865255;29;20585;-90
2023/10/12 14:00:25;;;;;;;7.10;1.88;;;15.20;99.90;;;;;;4872360;29;20044;-91
2023/10/12 14:02:58;;;;;;;5.03;1.60;;;14.90;99.90;;;;;;4869091;29;20108;-91
2023/10/12 14:05:30;;;;;;;6.95;1.80;;;15.10;99.90;;;;;;4882043;29;20076;-91
2023/10/12 14:07:59;;;;;;;6.50;1.65;;;15.00;99.90;;;;;;4883074;29;20064;-91
2023/10/12 14:10:26;;;;;;;6.97;2.08;;;14.90;99.90;;;;;;4868434;29;20037;-91
2023/10/12 14:12:56;;;;;;;7.28;1.90;;;14.90;99.90;;;;;;4898824;29;20201;-91
2023/10/12 14:15:26;;;;;;;6.15;1.65;;;14.90;99.90;;;;;;4885054;29;20097;-91
2023/10/12 14:17:58;;;;;;;6.90;1.83;;;14.90;99.90;;;;;;4881253;29;20059;-92
2023/10/12 14:20:26;;;;;;;7.22;1.70;;;14.90;99.90;;;;;;4894760;29;20059;-91
2023/10/12 14:23:05;;;;;;;7.57;1.88;;;14.90;99.90;;;;;;4867723;29;20088;-91
2023/10/12 14:25:45;;;;;;;6.85;1.67;;;14.90;99.90;;;;;;4877392;29;20063;-90
2023/10/12 14:28:16;;;;;;;6.45;1.70;;;14.90;99.90;;;;;;4875682;29;20040;-91
2023/10/12 14:30:47;;;;;;;6.13;1.40;;;14.90;99.90;;;;;;4864563;29;20129;-91
2023/10/12 14:33:15;;;;;;;5.53;1.40;;;14.90;99.90;;;;;;4857057;29;20439;-91
2023/10/12 14:35:42;;;;;;;7.20;1.77;;;14.90;99.90;;;;;;4881323;29;20098;-91
2023/10/12 14:38:16;;;;;;;6.93;1.95;;;14.90;99.90;;;;;;4888971;29;20043;-92
2023/10/12 14:40:43;;;;;;;6.22;1.60;;;14.90;99.90;;;;;;4896117;29;20083;-91
2023/10/12 14:43:12;;;;;;;6.65;1.50;;;14.90;99.90;;;;;;4857119;29;20040;-92
2023/10/12 14:45:43;;;;;;;8.23;1.88;;;14.90;99.90;;;;;;4882984;29;20052;-91
2023/10/12 14:48:10;;;;;;;8.75;2.20;;;;;;;;;;4890023;29;20055;-91
2023/10/12 14:50:43;;;;;;;7.63;1.75;;;14.80;99.90;;;;;;4876672;29;20493;-92
2023/10/12 14:53:09;;;;;;;;;;;14.60;99.90;;;;;;4886341;29;20095;-92
2023/10/12 14:55:37;;;;;;;7.43;1.58;;;14.60;99.90;;;;;;4882480;29;19967;-89
2023/10/12 14:58:07;;;;;;;6.93;1.70;;;14.60;99.90;;;;;;4897735;29;20048;-90
2023/10/12 15:00:34;;;;;;;8.27;2.20;;;14.50;99.90;;;;;;4867362;29;20044;-90
2023/10/12 15:03:00;;;;;;;6.22;1.90;;;14.50;99.90;;;;;;4880926;29;20047;-90
2023/10/12 15:05:32;;;;;;;7.88;1.75;;;14.40;99.90;;;;;;4880277;29;20039;-90
2023/10/12 15:07:58;;;;;;;6.63;2.05;;;14.40;99.90;;;;;;4882256;29;20064;-90
2023/10/12 15:10:25;;;;;;;7.10;1.77;;;14.10;99.90;;;;;;4881899;29;20040;-90
2023/10/12 15:12:51;;;;;;;5.90;1.60;;;14.30;99.90;;;;;;4881304;29;20036;-90
2023/10/12 15:15:25;;;;;;;6.03;1.70;;;14.30;99.90;;;;;;4892529;29;20048;-90
2023/10/12 15:17:54;;;;;;;7.30;2.20;;;14.30;99.90;;;;;;4889284;29;20066;-92
2023/10/12 15:20:23;;;;;;;7.05;1.60;;;14.20;99.90;;;;;;4897799;29;20056;-90
2023/10/12 15:22:49;;;;;;;6.60;1.73;;;14.20;99.90;;;;;;4881737;29;20052;-90
2023/10/12 15:25:18;;;;;;;5.18;1.63;;;14.10;99.90;;;;;;4895048;29;20068;-90
2023/10/12 15:27:50;;;;;;;7.95;1.85;;;14.10;99.90;;;;;;4878691;29;20055;-90
2023/10/12 15:30:17;;;;;;;6.53;1.73;;;15.60;99.90;;;;;;4878159;29;20120;-90
2023/10/12 15:32:43;;;;;;;5.78;1.63;;;14.10;99.90;;;;;;4879350;29;20313;-90
2023/10/12 15:35:13;;;;;;;8.32;1.73;;;14.00;99.90;;;;;;4859527;29;20056;-90
2023/10/12 15:37:40;;;;;;;5.35;1.77;;;13.90;99.90;;;;;;4857455;29;20049;-89
2023/10/12 15:40:11;;;;;;;5.65;1.55;;;13.80;99.90;;;;;;4870346;29;20511;-89
2023/10/12 15:42:36;;;;;;;5.43;1.60;;;12.30;99.90;;;;;;4866574;29;20431;-90
2023/10/12 15:45:03;;;;;;;7.10;1.60;;;13.70;99.90;;;;;;4862359;29;20104;-90
2023/10/12 15:47:30;;;;;;;7.40;1.80;;;;;;;;;;4862743;29;20040;-90
2023/10/12 15:49:58;;;;;;;4.95;1.48;;;13.70;99.90;;;;;;4878447;29;20048;-90
2023/10/12 15:52:24;;;;;;;5.50;1.52;;;13.60;99.90;;;;;;4877108;29;20037;-90
2023/10/12 15:54:50;;;;;;;6.45;1.50;;;13.60;99.90;;;;;;4879593;29;20045;-90
2023/10/12 15:57:17;;;;;;;6.95;1.85;;;13.60;99.90;;;;;;4854429;29;20123;-90
2023/10/12 15:59:44;;;;;;;6.90;1.77;;;13.60;99.90;;;;;;4893495;29;20044;-90
2023/10/12 16:02:10;;;;;;;7.60;1.77;;;13.60;99.90;;;;;;4863035;29;20040;-90
2023/10/12 16:04:36;;;;;;;9.00;2.30;;;13.60;99.90;;;;;;4855424;29;20494;-88